createdAt,value
2019-06-15T00:00:41.155Z,0.00
2019-06-15T00:01:41.147Z,0.00
2019-06-15T00:02:41.117Z,0.00
2019-06-15T00:03:41.094Z,0.00
2019-06-15T00:04:41.077Z,0.00
2019-06-15T00:05:41.107Z,0.00
2019-06-15T00:06:41.048Z,0.00
2019-06-15T00:07:41.023Z,0.00
2019-06-15T00:08:41.017Z,0.00
2019-06-15T00:09:40.991Z,0.00
2019-06-15T00:10:40.983Z,0.00
2019-06-15T00:11:40.986Z,0.00
2019-06-15T00:12:40.950Z,0.00
2019-06-15T00:13:40.936Z,0.00
2019-06-15T00:14:40.918Z,0.00
2019-06-15T00:15:40.889Z,0.00
2019-06-15T00:16:40.900Z,0.00
2019-06-15T00:17:40.883Z,0.00
2019-06-15T00:18:40.855Z,0.00
2019-06-15T00:19:40.835Z,0.00
2019-06-15T00:20:40.838Z,0.00
2019-06-15T00:21:40.880Z,0.00
2019-06-15T00:22:40.811Z,0.00
2019-06-15T00:23:40.763Z,0.00
2019-06-15T00:24:40.759Z,0.00
2019-06-15T00:25:40.732Z,0.00
2019-06-15T00:26:40.713Z,0.00
2019-06-15T00:27:40.703Z,0.00
2019-06-15T00:28:40.938Z,0.00
2019-06-15T00:29:40.910Z,0.00
2019-06-15T00:30:40.765Z,0.00
2019-06-15T00:31:40.634Z,0.00
2019-06-15T00:32:40.642Z,0.00
2019-06-15T00:33:40.593Z,0.00
2019-06-15T00:34:40.591Z,0.00
2019-06-15T00:35:40.585Z,0.00
2019-06-15T00:36:40.545Z,0.00
2019-06-15T00:37:40.572Z,0.00
2019-06-15T00:38:40.566Z,0.00
2019-06-15T00:39:40.527Z,0.00
2019-06-15T00:40:40.522Z,0.00
2019-06-15T00:42:40.449Z,0.00
2019-06-15T00:43:41.584Z,0.00
2019-06-15T00:44:40.477Z,0.00
2019-06-15T00:45:40.901Z,0.00
2019-06-15T00:46:42.479Z,0.00
2019-06-15T00:47:40.395Z,0.00
2019-06-15T00:48:41.273Z,0.00
2019-06-15T00:49:40.333Z,0.00
2019-06-15T00:50:40.317Z,0.00
2019-06-15T00:51:40.299Z,0.00
2019-06-15T00:52:40.294Z,0.00
2019-06-15T00:53:40.269Z,0.00
2019-06-15T00:54:50.008Z,0.00
2019-06-15T00:55:40.236Z,0.00
2019-06-15T00:56:40.245Z,0.00
2019-06-15T00:57:40.215Z,0.00
2019-06-15T00:58:40.188Z,0.00
2019-06-15T00:59:40.177Z,0.00
2019-06-15T01:00:40.158Z,0.00
2019-06-15T01:01:40.134Z,0.00
2019-06-15T01:02:40.136Z,0.00
2019-06-15T01:03:40.100Z,0.00
2019-06-15T01:04:40.083Z,0.00
2019-06-15T01:05:40.076Z,0.00
2019-06-15T01:06:40.077Z,0.00
2019-06-15T01:07:40.039Z,0.00
2019-06-15T01:08:40.030Z,0.00
2019-06-15T01:09:40.011Z,0.00
2019-06-15T01:10:40.008Z,0.00
2019-06-15T01:11:39.989Z,0.00
2019-06-15T01:12:39.947Z,0.00
2019-06-15T01:13:39.969Z,0.00
2019-06-15T01:14:39.935Z,0.00
2019-06-15T01:15:39.922Z,0.00
2019-06-15T01:16:39.899Z,0.00
2019-06-15T01:17:39.876Z,0.00
2019-06-15T01:18:39.857Z,0.00
2019-06-15T01:19:39.863Z,0.00
2019-06-15T01:20:39.843Z,0.00
2019-06-15T01:21:39.807Z,0.00
2019-06-15T01:22:39.798Z,0.00
2019-06-15T01:23:39.792Z,0.00
2019-06-15T01:24:39.752Z,0.00
2019-06-15T01:25:39.743Z,0.00
2019-06-15T01:26:39.742Z,0.00
2019-06-15T01:27:39.695Z,0.00
2019-06-15T01:28:39.708Z,0.00
2019-06-15T01:29:39.681Z,0.00
2019-06-15T01:30:39.645Z,0.00
2019-06-15T01:31:39.642Z,0.00
2019-06-15T01:32:39.629Z,0.00
2019-06-15T01:33:39.629Z,0.00
2019-06-15T01:34:39.596Z,0.00
2019-06-15T01:35:39.572Z,0.00
2019-06-15T01:36:39.562Z,0.00
2019-06-15T01:37:39.533Z,0.00
2019-06-15T01:38:39.523Z,0.00
2019-06-15T01:39:39.506Z,0.00
2019-06-15T01:40:41.591Z,0.00
2019-06-15T01:41:39.496Z,0.00
2019-06-15T01:42:39.456Z,0.00
2019-06-15T01:43:39.448Z,0.00
2019-06-15T01:44:39.419Z,0.00
2019-06-15T01:45:39.413Z,0.00
2019-06-15T01:46:39.402Z,0.00
2019-06-15T01:47:39.363Z,0.00
2019-06-15T01:48:39.347Z,0.00
2019-06-15T01:49:39.327Z,0.00
2019-06-15T01:50:39.311Z,0.00
2019-06-15T01:51:39.291Z,0.00
2019-06-15T01:52:39.274Z,0.00
2019-06-15T01:53:39.290Z,0.00
2019-06-15T01:54:39.250Z,0.00
2019-06-15T01:55:39.259Z,0.00
2019-06-15T01:56:39.230Z,0.00
2019-06-15T01:57:39.191Z,0.00
2019-06-15T01:58:39.175Z,0.00
2019-06-15T01:59:39.179Z,0.00
2019-06-15T02:00:39.139Z,0.00
2019-06-15T02:01:39.119Z,0.00
2019-06-15T02:02:39.108Z,0.00
2019-06-15T02:03:39.087Z,0.00
2019-06-15T02:04:39.081Z,0.00
2019-06-15T02:05:39.053Z,0.00
2019-06-15T02:06:39.041Z,0.00
2019-06-15T02:07:39.049Z,0.00
2019-06-15T02:08:39.013Z,0.00
2019-06-15T02:09:39.012Z,0.00
2019-06-15T02:10:39.016Z,0.00
2019-06-15T02:11:38.983Z,0.00
2019-06-15T02:12:38.965Z,0.00
2019-06-15T02:13:38.935Z,0.00
2019-06-15T02:14:38.909Z,0.00
2019-06-15T02:15:38.883Z,0.00
2019-06-15T02:16:38.895Z,0.00
2019-06-15T02:17:38.857Z,0.00
2019-06-15T02:18:38.861Z,0.00
2019-06-15T02:19:38.831Z,0.00
2019-06-15T02:20:38.801Z,0.00
2019-06-15T02:21:38.786Z,0.00
2019-06-15T02:22:38.778Z,0.00
2019-06-15T02:23:38.746Z,0.00
2019-06-15T02:24:38.731Z,0.00
2019-06-15T02:25:38.728Z,0.00
2019-06-15T02:26:38.715Z,0.00
2019-06-15T02:27:38.694Z,0.00
2019-06-15T02:28:38.667Z,0.00
2019-06-15T02:29:38.675Z,0.00
2019-06-15T02:30:38.634Z,0.00
2019-06-15T02:31:38.610Z,0.00
2019-06-15T02:32:38.593Z,0.00
2019-06-15T02:33:38.575Z,0.00
2019-06-15T02:34:38.582Z,0.00
2019-06-15T02:35:38.560Z,0.00
2019-06-15T02:36:38.539Z,0.00
2019-06-15T02:37:38.511Z,0.00
2019-06-15T02:38:38.493Z,0.00
2019-06-15T02:39:38.483Z,0.00
2019-06-15T02:40:38.469Z,0.00
2019-06-15T02:41:38.455Z,0.00
2019-06-15T02:42:38.418Z,0.00
2019-06-15T02:43:38.414Z,0.00
2019-06-15T02:44:38.392Z,0.00
2019-06-15T02:45:38.380Z,0.00
2019-06-15T02:46:38.355Z,0.00
2019-06-15T02:47:38.347Z,0.00
2019-06-15T02:48:38.321Z,0.00
2019-06-15T02:49:38.318Z,0.00
2019-06-15T02:50:38.289Z,0.00
2019-06-15T02:51:38.267Z,0.00
2019-06-15T02:52:38.246Z,0.00
2019-06-15T02:53:38.254Z,0.00
2019-06-15T02:54:38.211Z,0.00
2019-06-15T02:55:49.729Z,0.00
2019-06-15T02:56:38.189Z,0.00
2019-06-15T02:57:38.155Z,0.00
2019-06-15T02:58:38.160Z,0.00
2019-06-15T02:59:38.128Z,0.00
2019-06-15T03:00:38.104Z,0.00
2019-06-15T03:01:38.093Z,0.00
2019-06-15T03:02:38.074Z,0.00
2019-06-15T03:03:38.062Z,0.00
2019-06-15T03:04:38.038Z,0.00
2019-06-15T03:05:38.030Z,0.00
2019-06-15T03:06:38.001Z,0.00
2019-06-15T03:07:37.995Z,0.00
2019-06-15T03:08:37.981Z,0.00
2019-06-15T03:09:37.960Z,0.00
2019-06-15T03:10:37.938Z,0.00
2019-06-15T03:11:37.923Z,0.00
2019-06-15T03:12:37.899Z,0.00
2019-06-15T03:13:37.882Z,0.00
2019-06-15T03:14:37.893Z,0.00
2019-06-15T03:15:37.869Z,0.00
2019-06-15T03:16:37.838Z,0.00
2019-06-15T03:17:37.833Z,5.63
2019-06-15T03:18:37.807Z,5.63
2019-06-15T03:19:37.796Z,5.63
2019-06-15T03:20:37.763Z,5.63
2019-06-15T03:21:37.737Z,5.63
2019-06-15T03:22:37.722Z,11.25
2019-06-15T03:23:37.723Z,11.25
2019-06-15T03:24:37.686Z,16.88
2019-06-15T03:25:37.701Z,16.88
2019-06-15T03:26:37.730Z,22.50
2019-06-15T03:27:37.651Z,22.50
2019-06-15T03:28:37.630Z,22.50
2019-06-15T03:29:37.604Z,22.50
2019-06-15T03:30:37.586Z,22.50
2019-06-15T03:31:37.577Z,22.50
2019-06-15T03:32:37.549Z,22.50
2019-06-15T03:33:37.530Z,16.88
2019-06-15T03:34:37.521Z,16.88
2019-06-15T03:35:37.503Z,16.88
2019-06-15T03:36:37.485Z,11.25
2019-06-15T03:37:37.466Z,11.25
2019-06-15T03:38:37.454Z,11.25
2019-06-15T03:39:40.387Z,11.25
2019-06-15T03:40:37.404Z,11.25
2019-06-15T03:41:37.413Z,11.25
2019-06-15T03:42:37.370Z,11.25
2019-06-15T03:43:37.363Z,11.25
2019-06-15T03:44:37.346Z,11.25
2019-06-15T03:45:37.327Z,11.25
2019-06-15T03:46:37.302Z,11.25
2019-06-15T03:47:37.303Z,11.25
2019-06-15T03:48:37.265Z,16.88
2019-06-15T03:49:37.253Z,16.88
2019-06-15T03:50:37.261Z,22.50
2019-06-15T03:51:37.223Z,22.50
2019-06-15T03:52:37.219Z,28.13
2019-06-15T03:53:37.191Z,28.13
2019-06-15T03:54:37.170Z,33.75
2019-06-15T03:55:40.330Z,33.75
2019-06-15T03:56:37.134Z,33.75
2019-06-15T03:57:37.117Z,33.75
2019-06-15T03:58:37.099Z,33.75
2019-06-15T03:59:37.081Z,39.38
2019-06-15T04:00:37.065Z,33.75
2019-06-15T04:01:37.051Z,39.38
2019-06-15T04:02:37.031Z,39.38
2019-06-15T04:03:37.013Z,39.38
2019-06-15T04:04:36.993Z,33.75
2019-06-15T04:05:36.980Z,33.75
2019-06-15T04:06:36.976Z,33.75
2019-06-15T04:07:36.947Z,33.75
2019-06-15T04:08:36.925Z,33.75
2019-06-15T04:09:36.914Z,33.75
2019-06-15T04:10:36.883Z,28.13
2019-06-15T04:11:36.881Z,22.50
2019-06-15T04:12:36.858Z,22.50
2019-06-15T04:13:36.849Z,22.50
2019-06-15T04:14:36.827Z,22.50
2019-06-15T04:15:36.808Z,16.88
2019-06-15T04:16:36.787Z,16.88
2019-06-15T04:17:36.773Z,11.25
2019-06-15T04:18:36.756Z,11.25
2019-06-15T04:19:36.762Z,11.25
2019-06-15T04:20:36.721Z,16.88
2019-06-15T04:21:36.703Z,16.88
2019-06-15T04:22:36.679Z,16.88
2019-06-15T04:23:36.669Z,22.50
2019-06-15T04:24:36.649Z,16.88
2019-06-15T04:25:36.632Z,16.88
2019-06-15T04:26:36.716Z,22.50
2019-06-15T04:27:36.608Z,16.88
2019-06-15T04:28:36.580Z,16.88
2019-06-15T04:29:36.567Z,16.88
2019-06-15T04:30:36.549Z,16.88
2019-06-15T04:31:39.738Z,16.88
2019-06-15T04:32:36.517Z,16.88
2019-06-15T04:33:36.497Z,16.88
2019-06-15T04:34:36.478Z,22.50
2019-06-15T04:35:36.468Z,22.50
2019-06-15T04:36:36.443Z,28.13
2019-06-15T04:37:36.435Z,28.13
2019-06-15T04:38:36.404Z,33.75
2019-06-15T04:39:36.392Z,33.75
2019-06-15T04:40:36.373Z,33.75
2019-06-15T04:41:36.353Z,28.13
2019-06-15T04:42:36.339Z,28.13
2019-06-15T04:43:36.326Z,28.13
2019-06-15T04:44:36.304Z,28.13
2019-06-15T04:45:36.292Z,28.13
2019-06-15T04:46:36.264Z,28.13
2019-06-15T04:47:36.259Z,33.75
2019-06-15T04:48:36.237Z,33.75
2019-06-15T04:49:36.213Z,33.75
2019-06-15T04:50:36.207Z,33.75
2019-06-15T04:51:36.186Z,33.75
2019-06-15T04:52:36.165Z,33.75
2019-06-15T04:53:36.141Z,33.75
2019-06-15T04:54:36.134Z,39.38
2019-06-15T04:55:36.117Z,39.38
2019-06-15T04:56:47.817Z,45.00
2019-06-15T04:57:36.082Z,45.00
2019-06-15T04:58:36.058Z,45.00
2019-06-15T04:59:36.065Z,39.38
2019-06-15T05:00:36.028Z,39.38
2019-06-15T05:01:36.006Z,39.38
2019-06-15T05:02:35.991Z,45.00
2019-06-15T05:03:35.973Z,45.00
2019-06-15T05:04:35.958Z,56.25
2019-06-15T05:05:35.934Z,61.88
2019-06-15T05:06:35.945Z,67.50
2019-06-15T05:07:35.920Z,61.88
2019-06-15T05:08:35.888Z,56.25
2019-06-15T05:09:35.891Z,56.25
2019-06-15T05:10:35.857Z,61.88
2019-06-15T05:11:35.841Z,61.88
2019-06-15T05:12:35.827Z,61.88
2019-06-15T05:13:35.804Z,61.88
2019-06-15T05:14:35.787Z,56.25
2019-06-15T05:15:35.773Z,56.25
2019-06-15T05:16:35.753Z,61.88
2019-06-15T05:17:35.735Z,61.88
2019-06-15T05:18:35.733Z,61.88
2019-06-15T05:19:35.695Z,67.50
2019-06-15T05:20:35.679Z,73.13
2019-06-15T05:21:35.662Z,84.38
2019-06-15T05:22:35.650Z,95.63
2019-06-15T05:23:35.632Z,101.25
2019-06-15T05:24:35.608Z,106.88
2019-06-15T05:25:35.601Z,123.75
2019-06-15T05:26:35.575Z,140.63
2019-06-15T05:27:35.566Z,163.13
2019-06-15T05:28:35.550Z,180.00
2019-06-15T05:29:35.536Z,202.50
2019-06-15T05:30:35.510Z,225.00
2019-06-15T05:31:35.491Z,208.13
2019-06-15T05:32:35.481Z,196.88
2019-06-15T05:33:35.456Z,174.38
2019-06-15T05:34:35.439Z,157.50
2019-06-15T05:35:35.422Z,157.50
2019-06-15T05:36:35.402Z,163.13
2019-06-15T05:37:35.410Z,151.88
2019-06-15T05:38:35.371Z,163.13
2019-06-15T05:39:35.353Z,157.50
2019-06-15T05:40:35.338Z,151.88
2019-06-15T05:41:35.318Z,146.25
2019-06-15T05:42:35.308Z,135.00
2019-06-15T05:43:35.283Z,118.13
2019-06-15T05:44:35.263Z,106.88
2019-06-15T05:45:35.249Z,101.25
2019-06-15T05:46:35.243Z,101.25
2019-06-15T05:47:35.230Z,95.63
2019-06-15T05:48:35.192Z,95.63
2019-06-15T05:49:35.181Z,101.25
2019-06-15T05:50:35.159Z,95.63
2019-06-15T05:51:35.161Z,84.38
2019-06-15T05:52:35.133Z,67.50
2019-06-15T05:53:35.109Z,56.25
2019-06-15T05:54:35.099Z,56.25
2019-06-15T05:55:35.084Z,50.63
2019-06-15T05:56:35.070Z,61.88
2019-06-15T05:57:35.050Z,67.50
2019-06-15T05:58:35.026Z,73.13
2019-06-15T05:59:35.010Z,73.13
2019-06-15T06:00:34.992Z,67.50
2019-06-15T06:01:34.975Z,50.63
2019-06-15T06:02:34.958Z,39.38
2019-06-15T06:03:34.940Z,39.38
2019-06-15T06:04:34.926Z,28.13
2019-06-15T06:05:34.918Z,28.13
2019-06-15T06:06:34.895Z,45.00
2019-06-15T06:07:34.889Z,50.63
2019-06-15T06:08:34.851Z,56.25
2019-06-15T06:09:34.842Z,45.00
2019-06-15T06:10:34.825Z,61.88
2019-06-15T06:11:34.819Z,67.50
2019-06-15T06:12:34.793Z,78.75
2019-06-15T06:13:34.783Z,101.25
2019-06-15T06:14:34.762Z,84.38
2019-06-15T06:15:34.734Z,61.88
2019-06-15T06:16:34.721Z,50.63
2019-06-15T06:17:34.715Z,56.25
2019-06-15T06:18:34.690Z,67.50
2019-06-15T06:19:34.658Z,67.50
2019-06-15T06:20:34.667Z,73.13
2019-06-15T06:21:34.645Z,67.50
2019-06-15T06:22:34.649Z,67.50
2019-06-15T06:23:34.586Z,61.88
2019-06-15T06:24:34.635Z,73.13
2019-06-15T06:25:34.583Z,84.38
2019-06-15T06:26:34.576Z,90.00
2019-06-15T06:27:36.741Z,101.25
2019-06-15T06:28:34.531Z,106.88
2019-06-15T06:29:34.513Z,106.88
2019-06-15T06:30:34.480Z,101.25
2019-06-15T06:31:34.484Z,95.63
2019-06-15T06:32:34.431Z,90.00
2019-06-15T06:33:34.423Z,90.00
2019-06-15T06:34:34.433Z,78.75
2019-06-15T06:35:34.381Z,73.13
2019-06-15T06:36:34.363Z,78.75
2019-06-15T06:37:34.375Z,78.75
2019-06-15T06:38:34.359Z,73.13
2019-06-15T06:39:34.316Z,67.50
2019-06-15T06:40:34.332Z,61.88
2019-06-15T06:41:34.298Z,61.88
2019-06-15T06:42:34.313Z,61.88
2019-06-15T06:43:34.298Z,73.13
2019-06-15T06:44:34.227Z,73.13
2019-06-15T06:45:34.231Z,73.13
2019-06-15T06:46:34.201Z,73.13
2019-06-15T06:47:34.179Z,84.38
2019-06-15T06:48:34.195Z,95.63
2019-06-15T06:49:34.174Z,112.50
2019-06-15T06:50:34.132Z,129.38
2019-06-15T06:51:34.104Z,135.00
2019-06-15T06:52:34.108Z,157.50
2019-06-15T06:53:34.104Z,174.38
2019-06-15T06:54:34.060Z,191.25
2019-06-15T06:55:34.035Z,202.50
2019-06-15T06:56:34.028Z,196.88
2019-06-15T06:57:34.028Z,168.75
2019-06-15T06:58:34.011Z,123.75
2019-06-15T06:59:33.974Z,101.25
2019-06-15T07:00:33.973Z,95.63
2019-06-15T07:01:33.947Z,101.25
2019-06-15T07:02:33.919Z,78.75
2019-06-15T07:03:33.895Z,90.00
2019-06-15T07:04:33.926Z,112.50
2019-06-15T07:05:33.860Z,101.25
2019-06-15T07:06:33.850Z,168.75
2019-06-15T07:07:33.848Z,151.88
2019-06-15T07:08:33.836Z,146.25
2019-06-15T07:09:33.800Z,140.63
2019-06-15T07:10:33.775Z,129.38
2019-06-15T07:11:33.761Z,106.88
2019-06-15T07:12:33.825Z,146.25
2019-06-15T07:13:33.720Z,112.50
2019-06-15T07:14:33.719Z,118.13
2019-06-15T07:15:33.715Z,180.00
2019-06-15T07:16:33.723Z,309.38
2019-06-15T07:17:33.775Z,298.13
2019-06-15T07:18:33.700Z,326.25
2019-06-15T07:19:33.646Z,371.25
2019-06-15T07:20:33.619Z,360.00
2019-06-15T07:21:33.597Z,405.00
2019-06-15T07:22:33.587Z,399.38
2019-06-15T07:23:33.575Z,393.75
2019-06-15T07:24:33.539Z,382.50
2019-06-15T07:25:33.541Z,382.50
2019-06-15T07:26:33.565Z,376.88
2019-06-15T07:27:33.502Z,371.25
2019-06-15T07:28:33.485Z,399.38
2019-06-15T07:29:33.483Z,416.25
2019-06-15T07:30:33.467Z,421.88
2019-06-15T07:31:33.455Z,416.25
2019-06-15T07:32:33.602Z,399.38
2019-06-15T07:33:33.426Z,410.63
2019-06-15T07:34:33.378Z,495.00
2019-06-15T07:35:33.374Z,562.50
2019-06-15T07:36:33.377Z,635.63
2019-06-15T07:37:33.358Z,596.25
2019-06-15T07:38:33.338Z,585.00
2019-06-15T07:39:33.324Z,534.38
2019-06-15T07:40:33.278Z,489.38
2019-06-15T07:41:33.282Z,478.13
2019-06-15T07:42:33.279Z,416.25
2019-06-15T07:43:33.261Z,343.13
2019-06-15T07:44:33.227Z,298.13
2019-06-15T07:45:33.223Z,320.63
2019-06-15T07:46:33.184Z,286.88
2019-06-15T07:47:33.229Z,298.13
2019-06-15T07:48:33.331Z,292.50
2019-06-15T07:49:33.164Z,298.13
2019-06-15T07:50:33.166Z,270.00
2019-06-15T07:51:33.115Z,258.75
2019-06-15T07:52:33.149Z,253.13
2019-06-15T07:53:33.107Z,264.38
2019-06-15T07:54:36.061Z,253.13
2019-06-15T07:55:33.087Z,309.38
2019-06-15T07:56:33.063Z,320.63
2019-06-15T07:57:33.083Z,365.63
2019-06-15T07:58:33.005Z,388.13
2019-06-15T07:59:33.056Z,376.88
2019-06-15T08:00:32.967Z,331.88
2019-06-15T08:01:32.949Z,371.25
2019-06-15T08:02:32.939Z,433.13
2019-06-15T08:03:33.011Z,393.75
2019-06-15T08:04:32.996Z,450.00
2019-06-15T08:05:32.904Z,517.50
2019-06-15T08:06:32.898Z,641.25
2019-06-15T08:07:32.898Z,568.13
2019-06-15T08:08:32.844Z,450.00
2019-06-15T08:09:32.876Z,337.50
2019-06-15T08:10:32.892Z,286.88
2019-06-15T08:11:32.860Z,315.00
2019-06-15T08:12:32.824Z,410.63
2019-06-15T08:13:32.775Z,444.38
2019-06-15T08:14:32.780Z,421.88
2019-06-15T08:15:32.803Z,517.50
2019-06-15T08:16:32.768Z,478.13
2019-06-15T08:17:32.753Z,376.88
2019-06-15T08:18:32.734Z,405.00
2019-06-15T08:19:32.686Z,416.25
2019-06-15T08:20:32.699Z,354.38
2019-06-15T08:21:32.701Z,315.00
2019-06-15T08:22:32.711Z,360.00
2019-06-15T08:23:32.677Z,506.25
2019-06-15T08:24:32.627Z,601.88
2019-06-15T08:25:32.651Z,489.38
2019-06-15T08:26:32.616Z,331.88
2019-06-15T08:27:32.577Z,286.88
2019-06-15T08:28:40.303Z,365.63
2019-06-15T08:29:32.564Z,331.88
2019-06-15T08:30:32.543Z,303.75
2019-06-15T08:31:32.554Z,298.13
2019-06-15T08:32:32.515Z,286.88
2019-06-15T08:33:32.510Z,225.00
2019-06-15T08:34:32.507Z,196.88
2019-06-15T08:35:32.534Z,225.00
2019-06-15T08:36:32.487Z,286.88
2019-06-15T08:37:32.474Z,354.38
2019-06-15T08:38:32.455Z,405.00
2019-06-15T08:39:32.440Z,489.38
2019-06-15T08:40:32.426Z,523.13
2019-06-15T08:41:32.411Z,495.00
2019-06-15T08:42:32.404Z,466.88
2019-06-15T08:43:32.366Z,331.88
2019-06-15T08:44:32.358Z,174.38
2019-06-15T08:45:32.325Z,163.13
2019-06-15T08:46:32.328Z,185.63
2019-06-15T08:47:32.321Z,157.50
2019-06-15T08:48:32.285Z,112.50
2019-06-15T08:49:32.273Z,78.75
2019-06-15T08:50:32.270Z,73.13
2019-06-15T08:51:32.254Z,67.50
2019-06-15T08:52:32.217Z,84.38
2019-06-15T08:53:32.220Z,67.50
2019-06-15T08:54:32.193Z,78.75
2019-06-15T08:55:32.189Z,95.63
2019-06-15T08:56:32.183Z,112.50
2019-06-15T08:57:32.155Z,118.13
2019-06-15T08:58:32.167Z,118.13
2019-06-15T08:59:32.141Z,112.50
2019-06-15T09:00:32.122Z,112.50
2019-06-15T09:01:32.111Z,112.50
2019-06-15T09:02:32.095Z,135.00
2019-06-15T09:03:32.086Z,157.50
2019-06-15T09:04:32.058Z,191.25
2019-06-15T09:05:32.032Z,213.75
2019-06-15T09:06:32.041Z,196.88
2019-06-15T09:07:31.998Z,202.50
2019-06-15T09:08:32.022Z,219.38
2019-06-15T09:09:31.987Z,219.38
2019-06-15T09:10:31.948Z,241.88
2019-06-15T09:11:31.970Z,185.63
2019-06-15T09:12:31.922Z,151.88
2019-06-15T09:13:31.911Z,135.00
2019-06-15T09:14:31.892Z,168.75
2019-06-15T09:15:31.882Z,168.75
2019-06-15T09:16:31.854Z,140.63
2019-06-15T09:17:31.844Z,129.38
2019-06-15T09:18:31.845Z,157.50
2019-06-15T09:19:31.832Z,202.50
2019-06-15T09:20:31.798Z,202.50
2019-06-15T09:21:31.797Z,270.00
2019-06-15T09:22:31.776Z,270.00
2019-06-15T09:23:31.755Z,286.88
2019-06-15T09:24:31.734Z,320.63
2019-06-15T09:25:31.715Z,337.50
2019-06-15T09:26:31.697Z,298.13
2019-06-15T09:27:31.685Z,264.38
2019-06-15T09:28:31.681Z,213.75
2019-06-15T09:29:31.679Z,185.63
2019-06-15T09:30:31.646Z,185.63
2019-06-15T09:31:31.653Z,202.50
2019-06-15T09:32:31.607Z,185.63
2019-06-15T09:33:31.590Z,151.88
2019-06-15T09:34:31.599Z,213.75
2019-06-15T09:35:31.585Z,241.88
2019-06-15T09:36:31.559Z,219.38
2019-06-15T09:37:31.527Z,230.63
2019-06-15T09:38:31.513Z,236.25
2019-06-15T09:39:31.531Z,281.25
2019-06-15T09:40:40.185Z,208.13
2019-06-15T09:42:35.928Z,281.25
2019-06-15T09:43:35.915Z,275.63
2019-06-15T09:44:35.874Z,270.00
2019-06-15T09:45:35.874Z,309.38
2019-06-15T09:46:35.845Z,376.88
2019-06-15T09:47:35.823Z,427.50
2019-06-15T09:48:35.830Z,472.50
2019-06-15T09:49:35.792Z,427.50
2019-06-15T09:50:35.818Z,450.00
2019-06-15T09:51:35.788Z,461.25
2019-06-15T09:52:35.769Z,382.50
2019-06-15T09:53:35.772Z,292.50
2019-06-15T09:54:35.712Z,348.75
2019-06-15T09:55:35.707Z,331.88
2019-06-15T09:56:35.691Z,495.00
2019-06-15T09:57:35.677Z,517.50
2019-06-15T09:58:35.663Z,725.63
2019-06-15T09:59:38.354Z,860.63
2019-06-15T10:00:35.650Z,607.50
2019-06-15T10:01:35.598Z,517.50
2019-06-15T10:02:35.582Z,427.50
2019-06-15T10:03:35.586Z,466.88
2019-06-15T10:04:35.567Z,596.25
2019-06-15T10:05:35.561Z,641.25
2019-06-15T10:06:35.562Z,646.88
2019-06-15T10:07:35.523Z,618.75
2019-06-15T10:08:35.503Z,585.00
2019-06-15T10:09:35.480Z,635.63
2019-06-15T10:10:35.477Z,635.63
2019-06-15T10:11:36.044Z,613.13
2019-06-15T10:12:35.436Z,900.00
2019-06-15T10:13:35.421Z,590.63
2019-06-15T10:14:35.422Z,573.75
2019-06-15T10:15:35.431Z,528.75
2019-06-15T10:16:35.386Z,714.38
2019-06-15T10:17:35.395Z,545.63
2019-06-15T10:18:38.702Z,517.50
2019-06-15T10:19:35.353Z,450.00
2019-06-15T10:20:35.320Z,354.38
2019-06-15T10:21:35.306Z,472.50
2019-06-15T10:22:35.325Z,371.25
2019-06-15T10:23:35.278Z,528.75
2019-06-15T10:24:35.291Z,630.00
2019-06-15T10:25:35.256Z,720.00
2019-06-15T10:26:43.942Z,675.00
2019-06-15T10:28:39.706Z,450.00
2019-06-15T10:29:42.250Z,528.75
2019-06-15T10:30:39.695Z,466.88
2019-06-15T10:31:39.622Z,382.50
2019-06-15T10:32:39.617Z,264.38
2019-06-15T10:33:39.604Z,365.63
2019-06-15T10:34:39.592Z,343.13
2019-06-15T10:35:39.574Z,371.25
2019-06-15T10:36:39.569Z,416.25
2019-06-15T10:37:39.574Z,590.63
2019-06-15T10:38:39.560Z,517.50
2019-06-15T10:39:39.518Z,348.75
2019-06-15T10:40:39.505Z,365.63
2019-06-15T10:41:39.495Z,466.88
2019-06-15T10:42:39.542Z,478.13
2019-06-15T10:43:39.455Z,478.13
2019-06-15T10:44:39.449Z,607.50
2019-06-15T10:45:39.455Z,641.25
2019-06-15T10:46:39.440Z,613.13
2019-06-15T10:47:39.417Z,523.13
2019-06-15T10:48:39.391Z,438.75
2019-06-15T10:49:39.378Z,309.38
2019-06-15T10:50:39.387Z,354.38
2019-06-15T10:51:39.361Z,281.25
2019-06-15T10:52:39.330Z,354.38
2019-06-15T10:53:39.359Z,427.50
2019-06-15T10:54:39.316Z,461.25
2019-06-15T10:55:39.301Z,478.13
2019-06-15T10:56:39.308Z,483.75
2019-06-15T10:57:39.297Z,410.63
2019-06-15T10:58:39.304Z,320.63
2019-06-15T10:59:39.261Z,253.13
2019-06-15T11:00:39.219Z,236.25
2019-06-15T11:01:39.247Z,241.88
2019-06-15T11:02:39.219Z,258.75
2019-06-15T11:03:39.222Z,264.38
2019-06-15T11:04:39.196Z,275.63
2019-06-15T11:05:39.158Z,348.75
2019-06-15T11:06:39.201Z,354.38
2019-06-15T11:07:39.161Z,337.50
2019-06-15T11:08:39.110Z,354.38
2019-06-15T11:09:39.123Z,326.25
2019-06-15T11:10:39.106Z,303.75
2019-06-15T11:11:39.089Z,354.38
2019-06-15T11:12:46.288Z,393.75
2019-06-15T11:13:39.076Z,365.63
2019-06-15T11:14:39.074Z,298.13
2019-06-15T11:15:39.018Z,331.88
2019-06-15T11:16:39.003Z,331.88
2019-06-15T11:17:39.008Z,354.38
2019-06-15T11:18:38.976Z,410.63
2019-06-15T11:19:39.007Z,421.88
2019-06-15T11:20:38.953Z,343.13
2019-06-15T11:21:38.954Z,365.63
2019-06-15T11:22:38.966Z,455.63
2019-06-15T11:23:38.965Z,523.13
2019-06-15T11:24:38.960Z,551.25
2019-06-15T11:25:38.924Z,489.38
2019-06-15T11:26:41.861Z,421.88
2019-06-15T11:27:38.859Z,450.00
2019-06-15T11:28:38.843Z,438.75
2019-06-15T11:29:38.837Z,382.50
2019-06-15T11:30:38.836Z,371.25
2019-06-15T11:31:38.826Z,360.00
2019-06-15T11:32:38.826Z,348.75
2019-06-15T11:33:38.849Z,371.25
2019-06-15T11:34:38.782Z,354.38
2019-06-15T11:35:38.746Z,241.88
2019-06-15T11:36:38.738Z,230.63
2019-06-15T11:37:38.743Z,202.50
2019-06-15T11:38:38.743Z,253.13
2019-06-15T11:39:38.705Z,281.25
2019-06-15T11:40:38.695Z,331.88
2019-06-15T11:41:38.753Z,399.38
2019-06-15T11:42:38.647Z,421.88
2019-06-15T11:43:38.634Z,624.38
2019-06-15T11:44:38.625Z,624.38
2019-06-15T11:45:38.622Z,410.63
2019-06-15T11:46:38.769Z,286.88
2019-06-15T11:47:38.589Z,236.25
2019-06-15T11:48:38.626Z,247.50
2019-06-15T11:49:38.636Z,247.50
2019-06-15T11:50:38.552Z,264.38
2019-06-15T11:51:38.562Z,320.63
2019-06-15T11:52:38.574Z,348.75
2019-06-15T11:53:38.560Z,388.13
2019-06-15T11:54:38.521Z,393.75
2019-06-15T11:55:47.210Z,472.50
2019-06-15T11:57:42.944Z,590.63
2019-06-15T11:58:42.978Z,630.00
2019-06-15T11:59:42.915Z,613.13
2019-06-15T12:00:42.875Z,478.13
2019-06-15T12:01:42.877Z,365.63
2019-06-15T12:02:42.908Z,303.75
2019-06-15T12:03:42.836Z,286.88
2019-06-15T12:04:57.508Z,253.13
2019-06-15T12:05:42.824Z,275.63
2019-06-15T12:06:42.793Z,376.88
2019-06-15T12:07:42.790Z,489.38
2019-06-15T12:08:42.769Z,545.63
2019-06-15T12:09:42.774Z,568.13
2019-06-15T12:10:42.760Z,607.50
2019-06-15T12:11:42.719Z,652.50
2019-06-15T12:12:42.707Z,669.38
2019-06-15T12:13:42.727Z,669.38
2019-06-15T12:14:42.685Z,646.88
2019-06-15T12:15:42.681Z,585.00
2019-06-15T12:16:42.692Z,506.25
2019-06-15T12:17:42.658Z,433.13
2019-06-15T12:18:42.636Z,444.38
2019-06-15T12:19:42.615Z,500.63
2019-06-15T12:20:42.619Z,562.50
2019-06-15T12:21:42.611Z,613.13
2019-06-15T12:22:42.574Z,675.00
2019-06-15T12:23:42.572Z,675.00
2019-06-15T12:24:42.590Z,725.63
2019-06-15T12:25:42.539Z,714.38
2019-06-15T12:26:42.536Z,748.13
2019-06-15T12:27:42.529Z,697.50
2019-06-15T12:28:42.503Z,697.50
2019-06-15T12:29:42.495Z,579.38
2019-06-15T12:30:47.131Z,523.13
2019-06-15T12:31:42.486Z,523.13
2019-06-15T12:32:42.456Z,568.13
2019-06-15T12:33:42.434Z,652.50
2019-06-15T12:34:42.431Z,765.00
2019-06-15T12:35:42.424Z,810.00
2019-06-15T12:36:42.431Z,855.00
2019-06-15T12:37:42.411Z,871.88
2019-06-15T12:38:42.378Z,866.25
2019-06-15T12:39:42.357Z,832.50
2019-06-15T12:40:42.381Z,956.25
2019-06-15T12:41:42.361Z,911.25
2019-06-15T12:42:42.328Z,669.38
2019-06-15T12:43:42.329Z,624.38
2019-06-15T12:44:42.296Z,753.75
2019-06-15T12:45:42.287Z,590.63
2019-06-15T12:46:42.321Z,495.00
2019-06-15T12:47:42.300Z,483.75
2019-06-15T12:48:42.261Z,478.13
2019-06-15T12:49:42.239Z,506.25
2019-06-15T12:50:42.264Z,534.38